Time;durP1;ratioP1;P1;durP2;ratioP2;P2;SDS_P1;SDS_P2;PMS_P1;PMS_P2;Temp;Humidity;BMP_temperature;BMP_pressure;BME280_temperature;BME280_humidity;BME280_pressure;Samples;Min_cycle;Max_cycle;Signal;HPM_P1;HPM_P2
2023/05/17 00:00:09;;;;;;;0.00;0.00;;;;;;;-145.06;100.00;93031.69;10429301;28;20048;-76
2023/05/17 00:05:10;;;;;;;0.10;0.10;;;;;;;-145.06;100.00;93048.03;10434012;28;20028;-76
2023/05/17 00:10:11;;;;;;;0.00;0.00;;;;;;;-145.06;100.00;93007.16;10426220;28;20028;-76
2023/05/17 00:15:11;;;;;;;0.00;0.00;;;;;;;-145.06;100.00;93005.09;10432453;28;20024;-76
2023/05/17 00:20:11;;;;;;;0.00;0.00;;;;;;;-145.06;100.00;93031.69;10426589;28;20026;-76
2023/05/17 00:25:12;;;;;;;0.00;0.00;;;;;;;-145.06;100.00;93070.53;10416094;28;20018;-76
2023/05/17 00:30:13;;;;;;;0.00;0.00;;;;;;;-145.06;100.00;93058.28;10419021;28;20476;-76
2023/05/17 00:35:13;;;;;;;0.00;0.00;;;;;;;-145.06;100.00;93093.03;10432140;28;20092;-76
2023/05/17 00:40:17;;;;;;;0.00;0.00;;;;;;;-145.06;100.00;93072.59;10434579;28;20027;-76
2023/05/17 00:45:17;;;;;;;0.00;0.00;;;;;;;-145.06;100.00;93082.81;10430876;28;20025;-75
2023/05/17 00:50:17;;;;;;;0.00;0.00;;;;;;;-145.06;100.00;93068.50;10397777;28;20079;-75
2023/05/17 00:55:20;;;;;;;0.00;0.00;;;;;;;-145.06;100.00;93078.72;10425534;28;20010;-75
2023/05/17 01:00:21;;;;;;;0.00;0.00;;;;;;;-145.06;100.00;93084.84;10426012;28;20492;-76
2023/05/17 01:05:21;;;;;;;0.00;0.00;;;;;;;-145.06;100.00;93062.34;10435804;28;20040;-76
2023/05/17 01:10:30;;;;;;;0.00;0.00;;;;;;;-145.06;100.00;93091.00;10410260;28;20469;-76
2023/05/17 01:15:33;;;;;;;0.00;0.00;;;;;;;-145.06;100.00;93050.09;10431903;28;20081;-76
2023/05/17 01:20:40;;;;;;;0.00;0.00;;;;;;;-145.06;100.00;93023.50;10433877;28;20033;-76
2023/05/17 01:25:53;;;;;;;0.00;0.00;;;;;;;-145.06;100.00;93031.69;10406296;28;20367;-76
2023/05/17 01:30:56;;;;;;;0.00;0.00;;;;;;;-145.06;100.00;92986.69;10398922;28;20020;-76
2023/05/17 01:35:56;;;;;;;0.00;0.00;;;;;;;-145.06;100.00;92966.25;10396179;28;20028;-76
2023/05/17 01:41:15;;;;;;;0.00;0.00;;;;;;;-145.06;100.00;92945.78;10414633;28;20504;-76
2023/05/17 01:46:25;;;;;;;0.00;0.00;;;;;;;-145.06;100.00;92976.47;10415388;28;20750;-76
2023/05/17 01:51:32;;;;;;;0.00;0.00;;;;;;;-145.06;100.00;92974.41;10405241;28;20155;-76
2023/05/17 01:56:33;;;;;;;0.00;0.00;;;;;;;-145.06;100.00;92919.22;10423169;28;20017;-76
2023/05/17 02:01:34;;;;;;;0.00;0.00;;;;;;;-145.06;100.00;92978.50;10395973;28;20025;-76
2023/05/17 02:06:35;;;;;;;0.00;0.00;;;;;;;-145.06;100.00;92945.78;10407537;28;20097;-75
2023/05/17 02:11:35;;;;;;;0.00;0.00;;;;;;;-145.06;100.00;93013.28;10427044;28;20021;-76
2023/05/17 02:16:36;;;;;;;0.00;0.00;;;;;;;-145.06;100.00;92974.41;10418355;22;20052;-73
2023/05/17 02:21:38;;;;;;;0.00;0.00;;;;;;;-145.06;99.46;92906.94;10393108;28;20111;-74
2023/05/17 02:26:41;;;;;;;0.00;0.00;;;;;;;-145.06;97.29;92911.03;10376839;28;20017;-73
2023/05/17 02:31:41;;;;;;;0.00;0.00;;;;;;;-145.06;97.37;92929.44;10375769;28;20106;-74
2023/05/17 02:36:43;;;;;;;0.00;0.00;;;;;;;-145.06;99.21;92939.66;10387771;28;20030;-74
2023/05/17 02:41:43;;;;;;;0.00;0.00;;;;;;;-145.06;100.00;92968.28;10401532;28;20029;-73
2023/05/17 02:46:43;;;;;;;0.00;0.00;;;;;;;-145.06;99.70;92941.69;10402398;28;20100;-74
2023/05/17 02:51:44;;;;;;;0.00;0.00;;;;;;;-145.06;100.00;92972.38;10377758;28;20017;-73
2023/05/17 02:56:44;;;;;;;0.00;0.00;;;;;;;-145.06;99.14;92964.19;10397514;28;20372;-73
2023/05/17 03:01:45;;;;;;;0.00;0.00;;;;;;;-145.06;98.92;92986.69;10393969;28;20311;-73
2023/05/17 03:06:45;;;;;;;0.00;0.00;;;;;;;-145.06;100.00;92949.88;10389130;28;20118;-74
2023/05/17 03:11:45;;;;;;;0.00;0.00;;;;;;;-145.06;98.92;92908.97;10392957;28;20017;-74
2023/05/17 03:16:46;;;;;;;0.00;0.00;;;;;;;-145.06;99.63;92984.66;10400243;28;20034;-74
2023/05/17 03:21:46;;;;;;;0.00;0.00;;;;;;;-145.06;99.26;92978.50;10391268;28;20021;-74
2023/05/17 03:26:46;;;;;;;0.00;0.00;;;;;;;-145.06;96.61;92921.25;10403813;28;20024;-74
2023/05/17 03:31:47;;;;;;;0.10;0.10;;;;;;;-145.06;97.23;92941.69;10406068;28;20029;-74
2023/05/17 03:36:47;;;;;;;0.00;0.00;;;;;;;-145.06;98.96;93019.41;10387897;28;20427;-74
2023/05/17 03:41:47;;;;;;;0.00;0.00;;;;;;;-145.06;93.34;92792.41;10383525;28;20076;-74
2023/05/17 03:46:48;;;;;;;0.00;0.00;;;;;;;-145.06;89.81;92346.66;10399107;28;20096;-73
2023/05/17 03:51:48;;;;;;;0.00;0.00;;;;;;;-145.06;86.75;92271.00;10400147;28;20457;-73
2023/05/17 03:56:49;;;;;;;0.00;0.00;;;;;;;-145.06;89.53;92753.56;10397322;28;20029;-73
2023/05/17 04:01:49;;;;;;;0.00;0.00;;;;;;;-145.06;89.18;92788.31;10392333;28;20030;-73
2023/05/17 04:06:49;;;;;;;0.00;0.00;;;;;;;-145.06;90.17;92837.41;10381515;28;20475;-74
2023/05/17 04:11:50;;;;;;;0.00;0.00;;;;;;;-145.06;92.04;92769.91;10389181;28;20461;-74
2023/05/17 04:16:50;;;;;;;0.00;0.00;;;;;;;-145.06;92.76;92089.03;10402934;28;20033;-73
2023/05/17 04:21:50;;;;;;;0.00;0.00;;;;;;;-145.06;90.53;92352.78;10381972;28;20021;-73
2023/05/17 04:26:51;;;;;;;0.00;0.00;;;;;;;-145.06;90.48;92510.22;10388125;28;20029;-74
2023/05/17 04:31:51;;;;;;;0.00;0.00;;;;;;;-145.06;90.75;92657.44;10401288;28;20388;-74
2023/05/17 04:36:51;;;;;;;0.00;0.00;;;;;;;-145.06;89.30;92446.84;10391278;28;20017;-73
2023/05/17 04:41:52;;;;;;;0.00;0.00;;;;;;;-145.06;88.04;92718.81;10389451;28;20403;-73
2023/05/17 04:46:52;;;;;;;0.00;0.00;;;;;;;-145.06;87.96;92516.34;10403029;28;20020;-73
2023/05/17 04:51:52;;;;;;;0.00;0.00;;;;;;;-145.06;84.86;92260.75;10389092;28;20495;-74
2023/05/17 04:56:53;;;;;;;0.00;0.00;;;;;;;-145.06;85.33;92170.81;10403386;28;20178;-73
2023/05/17 05:01:53;;;;;;;0.00;0.00;;;;;;;-145.06;71.62;91359.16;10382885;28;20028;-74
2023/05/17 05:06:53;;;;;;;0.00;0.00;;;;;;;-145.06;67.62;91970.44;10368402;28;20022;-72
2023/05/17 05:11:53;;;;;;;0.00;0.00;;;;;;;-145.06;70.18;91978.59;10394135;28;20049;-73
2023/05/17 05:16:54;;;;;;;0.00;0.00;;;;;;;-145.06;65.49;91941.81;10377969;28;20033;-73
2023/05/17 05:21:55;;;;;;;0.00;0.00;;;;;;;-145.06;68.35;91986.78;10394151;28;20026;-73
2023/05/17 05:26:55;;;;;;;0.00;0.00;;;;;;;-145.06;69.74;92076.75;10391553;28;20435;-73
2023/05/17 05:31:55;;;;;;;0.00;0.00;;;;;;;-145.06;70.43;92129.91;10398499;28;20080;-73
2023/05/17 05:36:55;;;;;;;0.00;0.00;;;;;;;-145.06;74.52;92170.81;10361276;28;20030;-73
2023/05/17 05:41:56;;;;;;;0.00;0.00;;;;;;;-145.06;75.17;92148.31;10379673;28;20022;-73
2023/05/17 05:46:56;;;;;;;0.10;0.10;;;;;;;-145.06;74.62;92099.25;10392858;28;20021;-73
2023/05/17 05:51:56;;;;;;;0.00;0.00;;;;;;;-145.06;78.01;92144.22;10396614;28;20033;-72
2023/05/17 05:56:58;;;;;;;0.10;0.10;;;;;;;-145.06;78.23;92144.22;10392462;28;20407;-73
2023/05/17 06:01:58;;;;;;;0.00;0.00;;;;;;;-145.06;79.81;92091.06;10399523;28;20514;-73
2023/05/17 06:06:58;;;;;;;0.00;0.00;;;;;;;-145.06;76.24;92060.38;10391481;28;20021;-73
2023/05/17 06:12:00;;;;;;;0.00;0.00;;;;;;;-145.06;77.31;92156.50;10391840;28;20515;-73
2023/05/17 06:17:00;;;;;;;0.00;0.00;;;;;;;-145.06;72.29;92158.53;10369960;28;20731;-73
2023/05/17 06:22:00;;;;;;;0.00;0.00;;;;;;;-145.06;67.87;92070.63;10391314;28;20030;-72
2023/05/17 06:27:01;;;;;;;0.00;0.00;;;;;;;-145.06;66.99;92044.03;10400516;28;20448;-73
2023/05/17 06:32:01;;;;;;;0.00;0.00;;;;;;;-145.06;68.91;91988.84;10381620;28;20494;-74
2023/05/17 06:37:02;;;;;;;0.00;0.00;;;;;;;-145.06;70.08;91999.06;10390470;28;20017;-73
2023/05/17 06:42:03;;;;;;;0.00;0.00;;;;;;;-145.06;69.77;92031.78;10400755;28;20429;-73
2023/05/17 06:47:03;;;;;;;0.00;0.00;;;;;;;-145.06;67.79;92021.53;10397852;28;20017;-73
2023/05/17 06:52:04;;;;;;;0.08;0.08;;;;;;;-145.06;66.88;92013.38;10393475;28;20071;-73
2023/05/17 06:57:04;;;;;;;0.00;0.00;;;;;;;-145.06;68.75;92021.53;10401357;28;20026;-74
2023/05/17 07:02:05;;;;;;;0.00;0.00;;;;;;;-145.06;67.93;92050.16;10398694;28;20018;-73
2023/05/17 07:07:05;;;;;;;0.00;0.00;;;;;;;-145.06;68.49;91964.28;10390167;28;20267;-72
2023/05/17 07:12:06;;;;;;;0.00;0.00;;;;;;;-145.06;67.65;91880.47;10387614;28;20165;-73
2023/05/17 07:17:06;;;;;;;0.00;0.00;;;;;;;-145.06;69.79;91925.44;10397465;28;20033;-74
2023/05/17 07:22:07;;;;;;;0.00;0.00;;;;;;;-145.06;66.15;91841.63;10395866;28;20029;-74
2023/05/17 07:27:07;;;;;;;0.00;0.00;;;;;;;-145.06;65.87;91862.06;10380710;28;20022;-73
2023/05/17 07:32:10;;;;;;;0.08;0.08;;;;;;;-145.06;63.24;91731.22;10408202;28;20022;-73
2023/05/17 07:37:11;;;;;;;0.10;0.10;;;;;;;-145.06;61.42;91833.44;10393181;28;20076;-73
2023/05/17 07:42:11;;;;;;;0.00;0.00;;;;;;;-145.06;66.94;91888.66;10409383;28;20357;-73
2023/05/17 07:47:11;;;;;;;0.00;0.00;;;;;;;-145.06;69.82;91804.81;10396196;28;20022;-72
2023/05/17 07:52:12;;;;;;;0.10;0.10;;;;;;;-145.06;68.62;91749.63;10390989;28;20276;-73
2023/05/17 07:57:12;;;;;;;0.00;0.00;;;;;;;-145.06;67.63;91655.59;10403320;28;20014;-72
2023/05/17 08:02:12;;;;;;;0.10;0.10;;;;;;;-145.06;60.30;91592.22;10398653;28;20056;-73
2023/05/17 08:07:13;;;;;;;0.10;0.10;;;;;;;-145.06;57.16;91586.06;10399327;28;20380;-73
2023/05/17 08:12:13;;;;;;;0.10;0.10;;;;;;;-145.06;59.18;91631.06;10412745;28;20070;-73
2023/05/17 08:17:13;;;;;;;0.10;0.10;;;;;;;-145.06;55.66;91477.72;10405073;23;20515;-75
2023/05/17 08:22:14;;;;;;;0.10;0.10;;;;;;;-145.06;57.22;91414.34;10385846;28;20421;-74
2023/05/17 08:27:15;;;;;;;0.10;0.10;;;;;;;-145.06;55.58;91604.47;10375971;28;20030;-74
2023/05/17 08:32:16;;;;;;;0.10;0.10;;;;;;;-145.06;55.08;91622.88;10353834;28;20485;-74
2023/05/17 08:37:19;;;;;;;0.10;0.10;;;;;;;-145.06;61.04;91641.28;10350645;28;20026;-75
2023/05/17 08:42:24;;;;;;;0.10;0.10;;;;;;;-145.06;63.88;91682.16;10361786;28;20572;-74
2023/05/17 08:47:28;;;;;;;0.10;0.10;;;;;;;-145.06;65.27;91733.28;10356473;28;20026;-74
2023/05/17 08:52:31;;;;;;;0.10;0.10;;;;;;;-145.06;63.97;91688.28;10351586;28;20127;-74
2023/05/17 08:57:32;;;;;;;0.10;0.10;;;;;;;-145.06;65.84;91402.09;10353108;28;20017;-75
2023/05/17 09:02:33;;;;;;;0.10;0.10;;;;;;;-145.06;59.43;90848.13;10344036;28;20112;-75
2023/05/17 09:07:34;;;;;;;0.10;0.10;;;;;;;-145.06;56.58;90978.97;10353834;28;20032;-75
2023/05/17 09:12:34;;;;;;;0.10;0.10;;;;;;;-145.06;54.09;91504.31;10364196;28;20332;-74
2023/05/17 09:17:35;;;;;;;0.10;0.10;;;;;;;-145.06;50.83;91575.84;10362729;28;20018;-74
2023/05/17 09:22:36;;;;;;;0.10;0.10;;;;;;;-145.06;56.60;91704.66;10358392;28;20041;-74
2023/05/17 09:27:36;;;;;;;0.10;0.10;;;;;;;-145.06;56.72;91616.75;10349200;28;20034;-74
2023/05/17 09:32:43;;;;;;;0.10;0.10;;;;;;;-145.06;50.01;91275.34;10352924;28;20415;-74
2023/05/17 09:37:45;;;;;;;0.05;0.05;;;;;;;-145.06;48.50;91355.06;10345820;28;20022;-74
2023/05/17 09:42:46;;;;;;;0.10;0.10;;;;;;;-145.06;47.89;91518.63;10347839;28;20500;-74
2023/05/17 09:47:47;;;;;;;0.10;0.10;;;;;;;-145.06;50.50;91647.41;10364079;28;20028;-74
2023/05/17 09:52:47;;;;;;;0.10;0.10;;;;;;;-145.06;53.83;91604.47;10358461;28;20022;-74
2023/05/17 09:57:48;;;;;;;0.10;0.10;;;;;;;-145.06;55.33;91530.88;10358827;28;20281;-74
2023/05/17 10:02:49;;;;;;;0.10;0.10;;;;;;;-145.06;52.31;91034.16;10351225;28;20116;-74
2023/05/17 10:07:50;;;;;;;0.00;0.00;;;;;;;-145.06;51.06;91197.66;10364189;28;20036;-74
2023/05/17 10:12:52;;;;;;;0.10;0.10;;;;;;;-145.06;48.62;90913.53;10362265;28;20022;-74
2023/05/17 10:17:53;;;;;;;0.10;0.10;;;;;;;-145.06;49.90;91408.22;10362140;28;20492;-75
2023/05/17 10:22:55;;;;;;;0.10;0.10;;;;;;;-145.06;52.43;91524.75;10357065;28;20353;-74
2023/05/17 10:27:55;;;;;;;0.10;0.10;;;;;;;-145.06;55.11;91543.16;10359018;28;20516;-74
2023/05/17 10:32:58;;;;;;;0.10;0.10;;;;;;;-145.06;53.57;91434.81;10326269;28;20120;-74
2023/05/17 10:37:58;;;;;;;0.10;0.10;;;;;;;-145.06;52.20;91218.13;10346770;28;20108;-74
2023/05/17 10:42:59;;;;;;;0.10;0.10;;;;;;;-145.06;52.60;91353.03;10351738;28;20172;-74
2023/05/17 10:48:05;;;;;;;0.10;0.10;;;;;;;-145.06;51.65;91248.78;10348259;28;20120;-74
2023/05/17 10:53:09;;;;;;;0.10;0.10;;;;;;;-145.06;46.04;91138.41;10352119;28;20156;-74
2023/05/17 10:58:10;;;;;;;0.10;0.10;;;;;;;-145.06;46.63;91322.38;10364362;28;20022;-74
2023/05/17 11:03:18;;;;;;;0.10;0.10;;;;;;;-145.06;46.55;91424.56;10358294;28;20026;-74
2023/05/17 11:08:18;;;;;;;0.10;0.10;;;;;;;-145.06;54.59;91637.19;10362535;28;20042;-73
2023/05/17 11:13:26;;;;;;;0.10;0.10;;;;;;;-145.06;53.94;91582.00;10343546;28;20052;-73
2023/05/17 11:18:26;;;;;;;0.10;0.10;;;;;;;-145.06;54.77;91445.03;10340214;28;20036;-74
2023/05/17 11:23:30;;;;;;;0.10;0.10;;;;;;;-145.06;54.90;91436.84;10367966;28;20033;-74
2023/05/17 11:28:31;;;;;;;;;;;;;;;-145.06;52.61;91465.47;10345858;28;20034;-74
2023/05/17 11:33:42;;;;;;;0.10;0.10;;;;;;;-145.06;53.46;91579.94;10346815;28;20155;-73
2023/05/17 11:38:42;;;;;;;0.10;0.10;;;;;;;-145.06;54.05;91651.50;10337413;28;20022;-73
2023/05/17 11:43:47;;;;;;;0.10;0.10;;;;;;;-145.06;55.42;91651.50;10367324;28;20493;-74
2023/05/17 11:48:51;;;;;;;0.00;0.00;;;;;;;-145.06;58.13;91473.63;10359885;28;20033;-74
2023/05/17 11:53:54;;;;;;;0.10;0.10;;;;;;;-145.06;50.64;91350.97;10356654;28;20061;-74
2023/05/17 11:58:54;;;;;;;0.10;0.10;;;;;;;-145.06;51.97;91473.63;10362071;28;20057;-73
2023/05/17 12:03:58;;;;;;;0.10;0.10;;;;;;;-145.06;53.56;91600.38;10358867;28;20076;-73
2023/05/17 12:08:59;;;;;;;0.20;0.20;;;;;;;-145.06;55.36;91596.31;10341750;28;20537;-73
2023/05/17 12:13:59;;;;;;;0.10;0.10;;;;;;;-145.06;53.65;91420.50;10357758;28;20040;-74
2023/05/17 12:18:59;;;;;;;0.10;0.10;;;;;;;-145.06;55.60;91682.16;10349169;28;20045;-74
2023/05/17 12:24:00;;;;;;;0.10;0.10;;;;;;;-145.06;51.68;91420.50;10350853;28;20037;-73
2023/05/17 12:29:00;;;;;;;0.10;0.10;;;;;;;-145.06;49.80;91502.25;10349202;28;20059;-74
2023/05/17 12:34:01;;;;;;;0.10;0.10;;;;;;;-145.06;52.05;91631.06;10359321;28;20042;-74
2023/05/17 12:39:05;;;;;;;0.10;0.10;;;;;;;-145.06;56.70;91663.75;10358536;28;20453;-73
2023/05/17 12:44:10;;;;;;;0.10;0.10;;;;;;;-145.06;56.45;91534.97;10357124;28;20018;-73
2023/05/17 12:49:10;;;;;;;0.10;0.10;;;;;;;-145.06;56.17;91616.75;10365037;28;20026;-74
2023/05/17 12:54:12;;;;;;;0.10;0.10;;;;;;;-145.06;56.40;91530.88;10335295;28;20072;-73
2023/05/17 12:59:19;;;;;;;0.10;0.10;;;;;;;-145.06;52.13;91426.63;10357255;28;20030;-73
2023/05/17 13:04:26;;;;;;;0.10;0.10;;;;;;;-145.06;51.07;91584.03;10353784;28;20052;-73
2023/05/17 13:09:31;;;;;;;0.10;0.10;;;;;;;-145.06;55.20;91526.78;10354290;28;20040;-74
2023/05/17 13:14:45;;;;;;;0.10;0.10;;;;;;;-145.06;50.51;91518.63;10362437;28;20021;-73
2023/05/17 13:19:46;;;;;;;0.10;0.10;;;;;;;-145.06;54.03;91659.69;10343915;28;20025;-74
2023/05/17 13:24:46;;;;;;;0.10;0.10;;;;;;;-145.06;55.33;91653.53;10338908;28;20030;-73
2023/05/17 13:29:46;;;;;;;0.10;0.10;;;;;;;-145.06;53.95;91649.44;10354303;28;20477;-73
2023/05/17 13:34:47;;;;;;;0.10;0.10;;;;;;;-145.06;55.88;91655.59;10363480;28;20040;-74
2023/05/17 13:39:48;;;;;;;0.10;0.10;;;;;;;-145.06;54.78;91667.84;10345438;28;20031;-73
2023/05/17 13:44:48;;;;;;;0.10;0.10;;;;;;;-145.06;55.91;91731.22;10359042;28;20025;-73
2023/05/17 13:49:49;;;;;;;0.08;0.08;;;;;;;-145.06;54.18;91665.81;10365503;28;20491;-73
2023/05/17 13:54:49;;;;;;;0.10;0.10;;;;;;;-145.06;52.65;91618.78;10346839;28;20397;-73
2023/05/17 13:59:49;;;;;;;0.10;0.10;;;;;;;-145.06;53.12;91659.69;10352179;28;20579;-73
2023/05/17 14:04:50;;;;;;;0.10;0.10;;;;;;;-145.06;55.42;91678.06;10348397;28;20032;-73
2023/05/17 14:09:50;;;;;;;0.10;0.10;;;;;;;-145.06;53.21;91631.06;10348861;28;20029;-73
2023/05/17 14:14:50;;;;;;;0.15;0.15;;;;;;;-145.06;51.34;91579.94;10367371;28;20431;-74
2023/05/17 14:19:51;;;;;;;0.10;0.10;;;;;;;-145.06;52.56;91608.56;10351425;23;20052;-75
2023/05/17 14:24:51;;;;;;;0.10;0.10;;;;;;;-145.06;50.77;91575.84;10341047;28;20096;-76
2023/05/17 14:29:52;;;;;;;0.10;0.10;;;;;;;-145.06;52.11;91643.31;10316145;28;20460;-74
2023/05/17 14:34:53;;;;;;;0.10;0.10;;;;;;;-145.06;52.81;91637.19;10329839;28;20046;-75
2023/05/17 14:39:53;;;;;;;0.10;0.10;;;;;;;-145.06;51.59;91604.47;10332601;28;20030;-76
2023/05/17 14:44:53;;;;;;;0.05;0.05;;;;;;;-145.06;51.85;91657.63;10332462;28;20031;-75
2023/05/17 14:49:53;;;;;;;0.10;0.10;;;;;;;-145.06;53.16;91725.09;10318630;28;20037;-75
2023/05/17 14:54:54;;;;;;;0.10;0.10;;;;;;;-145.06;56.04;91794.59;10335550;28;20091;-75
2023/05/17 14:59:55;;;;;;;0.10;0.10;;;;;;;-145.06;54.61;91718.97;10305376;28;20288;-75
2023/05/17 15:04:55;;;;;;;0.10;0.10;;;;;;;-145.06;58.09;91735.31;10345764;28;20080;-75
2023/05/17 15:09:55;;;;;;;0.10;0.10;;;;;;;-145.06;56.82;91723.06;10337917;28;20038;-75
2023/05/17 15:14:56;;;;;;;0.10;0.10;;;;;;;-145.06;54.78;91702.59;10331713;28;20477;-75
2023/05/17 15:19:57;;;;;;;0.10;0.10;;;;;;;-145.06;55.47;91745.53;10331969;28;20027;-75
2023/05/17 15:24:58;;;;;;;0.10;0.10;;;;;;;-145.06;56.57;91757.81;10314791;28;20014;-75
2023/05/17 15:29:58;;;;;;;0.10;0.10;;;;;;;-145.06;55.26;91731.22;10331127;28;20022;-75
2023/05/17 15:34:58;;;;;;;0.10;0.10;;;;;;;-145.06;57.92;91763.94;10344033;28;20023;-75
2023/05/17 15:40:08;;;;;;;0.10;0.10;;;;;;;-145.06;55.65;91753.72;10331562;28;20030;-75
2023/05/17 15:45:09;;;;;;;0.10;0.10;;;;;;;-145.06;54.48;91780.28;10336136;28;20030;-75
2023/05/17 15:50:10;;;;;;;0.10;0.10;;;;;;;-145.06;53.96;91782.34;10336586;28;20026;-75
2023/05/17 15:55:11;;;;;;;0.10;0.10;;;;;;;-145.06;55.64;91788.47;10327809;28;20069;-74
2023/05/17 16:00:12;;;;;;;0.10;0.10;;;;;;;-145.06;52.60;91796.66;10334038;28;20026;-75
2023/05/17 16:05:12;;;;;;;0.10;0.10;;;;;;;-145.06;55.39;91829.34;10335664;28;20022;-75
2023/05/17 16:10:12;;;;;;;0.10;0.10;;;;;;;-145.06;54.74;91843.69;10343883;28;20483;-75
2023/05/17 16:15:13;;;;;;;0.10;0.10;;;;;;;-145.06;54.95;91849.81;10334381;28;20018;-75
2023/05/17 16:20:13;;;;;;;0.10;0.10;;;;;;;-145.06;55.87;91882.50;10334121;28;20034;-75
2023/05/17 16:25:23;;;;;;;0.10;0.10;;;;;;;-145.06;58.02;91952.03;10332591;28;20012;-75
2023/05/17 16:30:24;;;;;;;0.10;0.10;;;;;;;-145.06;60.83;92005.19;10329970;28;20030;-75
2023/05/17 16:35:24;;;;;;;0.10;0.10;;;;;;;-145.06;61.73;92009.28;10338497;28;20022;-75
2023/05/17 16:40:27;;;;;;;0.10;0.10;;;;;;;-145.06;63.78;92039.94;10339166;28;20320;-75
2023/05/17 16:45:27;;;;;;;0.10;0.10;;;;;;;-145.06;63.56;92025.63;10328371;28;20026;-75
2023/05/17 16:50:28;;;;;;;0.10;0.10;;;;;;;-145.06;63.94;92062.44;10332811;28;20033;-75
2023/05/17 16:55:28;;;;;;;0.10;0.10;;;;;;;-145.06;63.58;92115.59;10335508;28;20473;-74
2023/05/17 17:00:28;;;;;;;0.00;0.00;;;;;;;-145.06;63.90;92115.59;10332278;28;20018;-75
2023/05/17 17:05:29;;;;;;;0.10;0.10;;;;;;;-145.06;66.60;92189.19;10331498;28;20142;-75
2023/05/17 17:10:29;;;;;;;0.03;0.03;;;;;;;-145.06;67.34;92164.66;10328270;28;20025;-75
2023/05/17 17:15:29;;;;;;;0.10;0.10;;;;;;;-145.06;62.12;92119.69;10328198;28;20046;-75
2023/05/17 17:20:29;;;;;;;0.10;0.10;;;;;;;-145.06;62.47;92107.41;10320571;28;20506;-75
2023/05/17 17:25:30;;;;;;;0.00;0.00;;;;;;;-145.06;60.82;92070.63;10328053;28;20546;-75
2023/05/17 17:30:30;;;;;;;0.00;0.00;;;;;;;-145.06;61.41;92152.41;10341503;28;20358;-75
2023/05/17 17:35:30;;;;;;;0.10;0.10;;;;;;;-145.06;61.19;92301.66;10339642;28;20432;-75
2023/05/17 17:40:31;;;;;;;0.10;0.10;;;;;;;-145.06;60.70;92395.72;10328267;28;20022;-75
2023/05/17 17:45:31;;;;;;;0.10;0.10;;;;;;;-145.06;60.96;92459.09;10327194;28;20269;-75
2023/05/17 17:50:32;;;;;;;0.00;0.00;;;;;;;-145.06;63.37;92508.19;10327123;28;20030;-74
2023/05/17 17:55:32;;;;;;;0.10;0.10;;;;;;;-145.06;60.91;92479.56;10332851;28;20117;-75
2023/05/17 18:00:33;;;;;;;0.05;0.05;;;;;;;-145.06;61.90;92526.59;10334583;28;20109;-74
2023/05/17 18:05:33;;;;;;;0.00;0.00;;;;;;;-145.06;63.07;92585.88;10329978;28;20018;-75
2023/05/17 18:10:33;;;;;;;0.07;0.07;;;;;;;-145.06;64.81;92579.75;10326824;28;20019;-74
2023/05/17 18:15:34;;;;;;;0.10;0.10;;;;;;;-145.06;65.95;92571.56;10326765;28;20022;-74
2023/05/17 18:20:34;;;;;;;0.10;0.10;;;;;;;-145.06;65.65;92632.91;10328206;28;20028;-75
2023/05/17 18:25:35;;;;;;;0.00;0.00;;;;;;;-145.06;66.13;92641.09;10328920;28;20032;-75
2023/05/17 18:30:35;;;;;;;0.10;0.10;;;;;;;-145.06;68.18;92667.69;10334616;28;20241;-75
2023/05/17 18:35:36;;;;;;;0.00;0.00;;;;;;;-145.06;71.65;92706.53;10334332;28;20029;-75
2023/05/17 18:40:36;;;;;;;0.10;0.10;;;;;;;-145.06;74.11;92745.38;10322575;28;20086;-75
2023/05/17 18:45:36;;;;;;;0.00;0.00;;;;;;;-145.06;74.75;92724.94;10341390;28;20444;-75
2023/05/17 18:50:37;;;;;;;0.10;0.10;;;;;;;-145.06;76.20;92753.56;10358907;28;20026;-74
2023/05/17 18:55:37;;;;;;;0.00;0.00;;;;;;;-145.06;78.05;92737.22;10352479;28;20050;-75
2023/05/17 19:00:37;;;;;;;0.10;0.10;;;;;;;-145.06;76.67;92778.09;10352894;28;20091;-75
2023/05/17 19:05:37;;;;;;;0.00;0.00;;;;;;;-145.06;74.91;92735.16;10338434;28;20026;-74
2023/05/17 19:10:38;;;;;;;0.10;0.10;;;;;;;-145.06;74.05;92729.03;10335059;28;20018;-74
2023/05/17 19:15:41;;;;;;;0.10;0.10;;;;;;;-145.06;71.29;92671.78;10328484;28;20026;-76
2023/05/17 19:20:41;;;;;;;0.05;0.05;;;;;;;-145.06;70.92;92663.59;10311838;28;20257;-75
2023/05/17 19:25:42;;;;;;;0.00;0.00;;;;;;;-145.06;71.73;92774.00;10340247;28;20014;-75
2023/05/17 19:30:42;;;;;;;0.00;0.00;;;;;;;-145.06;72.32;92712.66;10333971;28;20038;-75
2023/05/17 19:35:43;;;;;;;0.00;0.00;;;;;;;-145.06;70.90;92653.38;10343044;28;20126;-75
2023/05/17 19:40:43;;;;;;;0.00;0.00;;;;;;;-145.06;70.98;92702.44;10355576;28;20034;-75
2023/05/17 19:45:43;;;;;;;0.00;0.00;;;;;;;-145.06;71.37;92702.44;10351751;28;20053;-75
2023/05/17 19:50:44;;;;;;;0.00;0.00;;;;;;;-145.06;69.92;92692.22;10351942;28;20037;-74
2023/05/17 19:55:44;;;;;;;0.00;0.00;;;;;;;-145.06;69.67;92606.34;10353879;28;20041;-75
2023/05/17 20:00:44;;;;;;;0.00;0.00;;;;;;;-145.06;69.91;92696.31;10323122;28;20261;-75
2023/05/17 20:05:45;;;;;;;0.00;0.00;;;;;;;-145.06;69.44;92686.09;10328358;28;20258;-75
2023/05/17 20:10:45;;;;;;;0.00;0.00;;;;;;;-145.06;71.25;92720.84;10339899;28;20030;-75
2023/05/17 20:15:45;;;;;;;0.10;0.10;;;;;;;-145.06;71.83;92716.75;10367413;22;20179;-74
2023/05/17 20:20:46;;;;;;;0.00;0.00;;;;;;;-145.06;71.17;92737.22;10381821;28;20041;-73
2023/05/17 20:25:46;;;;;;;0.00;0.00;;;;;;;-145.06;70.83;92745.38;10375355;28;20017;-73
2023/05/17 20:30:46;;;;;;;0.00;0.00;;;;;;;-145.06;70.17;92712.66;10359948;28;20030;-73
2023/05/17 20:35:47;;;;;;;0.00;0.00;;;;;;;-145.06;68.65;92694.25;10386200;28;20044;-73
2023/05/17 20:40:47;;;;;;;0.00;0.00;;;;;;;-145.06;67.90;92679.94;10391402;28;20104;-73
2023/05/17 20:45:48;;;;;;;0.00;0.00;;;;;;;-145.06;68.50;92706.53;10402669;28;20112;-74
2023/05/17 20:50:48;;;;;;;0.00;0.00;;;;;;;-145.06;69.11;92665.63;10388914;28;20480;-73
2023/05/17 20:55:49;;;;;;;0.00;0.00;;;;;;;-145.06;68.75;92684.03;10403972;28;20101;-72
2023/05/17 21:00:51;;;;;;;0.00;0.00;;;;;;;-145.06;69.02;92686.09;10380072;28;20271;-71
2023/05/17 21:05:55;;;;;;;0.00;0.00;;;;;;;-145.06;70.36;92682.00;10372280;28;20532;-73
2023/05/17 21:10:56;;;;;;;0.00;0.00;;;;;;;-145.06;70.75;92682.00;10388433;28;20032;-71
2023/05/17 21:15:56;;;;;;;0.00;0.00;;;;;;;-145.06;71.27;92724.94;10383804;28;20030;-72
2023/05/17 21:20:56;;;;;;;0.00;0.00;;;;;;;-145.06;71.80;92698.34;10398663;28;20105;-73
2023/05/17 21:25:56;;;;;;;0.00;0.00;;;;;;;-145.06;71.56;92761.75;10370522;28;20026;-73
2023/05/17 21:30:57;;;;;;;0.00;0.00;;;;;;;-145.06;71.37;92696.31;10381978;28;20021;-73
2023/05/17 21:35:57;;;;;;;0.00;0.00;;;;;;;-145.06;71.77;92720.84;10390981;28;20358;-73
2023/05/17 21:40:58;;;;;;;0.00;0.00;;;;;;;-145.06;71.74;92722.88;10380517;28;20864;-73
2023/05/17 21:45:58;;;;;;;0.00;0.00;;;;;;;-145.06;71.53;92726.97;10376998;28;20025;-73
2023/05/17 21:50:58;;;;;;;0.00;0.00;;;;;;;-145.06;71.77;92755.59;10371907;28;20109;-73
2023/05/17 21:55:58;;;;;;;0.00;0.00;;;;;;;-145.06;71.29;92726.97;10385470;28;20018;-73
2023/05/17 22:00:59;;;;;;;0.10;0.10;;;;;;;-145.06;72.51;92679.94;10391875;28;20029;-73
2023/05/17 22:06:00;;;;;;;0.00;0.00;;;;;;;-145.06;72.76;92708.56;10380973;28;20389;-74
2023/05/17 22:11:01;;;;;;;0.00;0.00;;;;;;;-145.06;73.63;92759.69;10366741;28;20025;-74
2023/05/17 22:16:01;;;;;;;0.00;0.00;;;;;;;-145.06;74.90;92737.22;10351456;28;20036;-73
2023/05/17 22:21:01;;;;;;;0.00;0.00;;;;;;;-145.06;74.78;92769.91;10363831;28;20024;-73
2023/05/17 22:26:02;;;;;;;0.00;0.00;;;;;;;-145.06;74.49;92731.06;10374533;28;20028;-73
2023/05/17 22:31:06;;;;;;;0.00;0.00;;;;;;;-145.06;74.99;92767.88;10382438;28;20036;-73
2023/05/17 22:36:12;;;;;;;0.00;0.00;;;;;;;-145.06;74.72;92776.06;10395810;28;20059;-73
2023/05/17 22:41:12;;;;;;;0.00;0.00;;;;;;;-145.06;74.98;92759.69;10379756;28;20304;-73
2023/05/17 22:46:14;;;;;;;0.00;0.00;;;;;;;-145.06;75.19;92747.44;10384354;28;20493;-73